Time;durP1;ratioP1;P1;durP2;ratioP2;P2;SDS_P1;SDS_P2;PMS_P1;PMS_P2;Temp;Humidity;BMP_temperature;BMP_pressure;BME280_temperature;BME280_humidity;BME280_pressure;Samples;Min_cycle;Max_cycle;Signal;HPM_P1;HPM_P2
2023/07/31 00:00:29;;;;;;;21.30;7.65;;;;;;;15.89;100.00;100951.53;5010520;28;20053;-70
2023/07/31 00:02:55;;;;;;;26.58;8.32;;;;;;;15.88;100.00;100950.69;5010148;28;20050;-70
2023/07/31 00:05:20;;;;;;;26.83;8.13;;;;;;;15.87;100.00;100956.31;5000516;28;20112;-70
2023/07/31 00:07:46;;;;;;;22.23;8.10;;;;;;;15.85;100.00;100955.56;4991075;28;20042;-70
2023/07/31 00:10:11;;;;;;;20.88;7.72;;;;;;;15.86;100.00;100952.72;4990089;28;20029;-70
2023/07/31 00:12:39;;;;;;;24.02;7.75;;;;;;;15.87;100.00;100950.81;4990465;28;20026;-69
2023/07/31 00:15:05;;;;;;;23.77;7.28;;;;;;;15.86;100.00;100955.44;4990115;28;20038;-69
2023/07/31 00:17:30;;;;;;;22.52;7.53;;;;;;;15.83;100.00;100955.72;4990850;28;20058;-70
2023/07/31 00:19:55;;;;;;;24.52;7.60;;;;;;;15.84;100.00;100953.84;4988988;28;20088;-71
2023/07/31 00:22:21;;;;;;;20.83;7.03;;;;;;;15.83;100.00;100950.25;4990834;28;20046;-70
2023/07/31 00:24:46;;;;;;;18.70;5.95;;;;;;;15.83;100.00;100955.72;4988507;28;20042;-70
2023/07/31 00:27:12;;;;;;;16.90;6.72;;;;;;;15.83;100.00;100942.00;5006126;28;20026;-70
2023/07/31 00:29:37;;;;;;;17.02;6.75;;;;;;;15.83;100.00;100947.50;4990078;28;20072;-70
2023/07/31 00:32:04;;;;;;;14.15;6.50;;;;;;;15.81;100.00;100942.16;4990315;28;20052;-70
2023/07/31 00:34:29;;;;;;;21.45;6.82;;;;;;;15.83;100.00;100947.50;4989802;28;20099;-70
2023/07/31 00:36:55;;;;;;;15.77;5.90;;;;;;;15.84;100.00;100949.22;4988446;28;20030;-70
2023/07/31 00:39:20;;;;;;;20.45;6.30;;;;;;;15.81;100.00;100944.91;4991997;28;20101;-70
2023/07/31 00:41:45;;;;;;;18.88;6.10;;;;;;;15.82;100.00;100949.38;4990341;28;20043;-70
2023/07/31 00:44:11;;;;;;;23.10;6.28;;;;;;;15.84;100.00;100942.88;4989432;28;20061;-70
2023/07/31 00:46:36;;;;;;;19.42;5.55;;;;;;;15.84;100.00;100941.00;4989722;28;20030;-70
2023/07/31 00:49:02;;;;;;;21.33;6.47;;;;;;;15.84;100.00;100942.88;4988515;28;20625;-70
2023/07/31 00:51:28;;;;;;;28.40;7.28;;;;;;;15.85;100.00;100947.34;4990150;28;20125;-70
2023/07/31 00:53:54;;;;;;;19.10;6.13;;;;;;;15.84;100.00;100941.00;4987663;28;20470;-70
2023/07/31 00:56:19;;;;;;;18.52;5.53;;;;;;;15.84;100.00;100932.75;4989537;28;20034;-69
2023/07/31 00:58:44;;;;;;;21.77;5.53;;;;;;;15.83;100.00;100942.00;4989842;28;20122;-70
2023/07/31 01:01:10;;;;;;;18.13;5.22;;;;;;;15.82;100.00;100930.16;4989889;28;20406;-70
2023/07/31 01:03:35;;;;;;;20.88;6.20;;;;;;;15.80;100.00;100928.56;4988235;28;20375;-70
2023/07/31 01:06:14;;;;;;;18.35;6.00;;;;;;;15.81;100.00;100927.56;4997149;28;20037;-70
2023/07/31 01:08:54;;;;;;;22.85;5.90;;;;;;;15.80;100.00;100923.94;5003865;28;20065;-70
2023/07/31 01:11:25;;;;;;;20.13;5.07;;;;;;;15.79;100.00;100929.59;4989498;28;20505;-70
2023/07/31 01:13:51;;;;;;;20.77;6.07;;;;;;;15.79;100.00;100927.69;4990223;28;20046;-70
2023/07/31 01:16:17;;;;;;;20.27;6.03;;;;;;;15.78;100.00;100922.38;4991934;28;20097;-70
2023/07/31 01:18:42;;;;;;;13.85;5.47;;;;;;;15.77;100.00;100917.91;4990225;28;20406;-69
2023/07/31 01:21:49;;;;;;;18.88;4.68;;;;;;;15.77;100.00;100918.75;4987653;28;20390;-69
2023/07/31 01:24:41;;;;;;;16.13;5.43;;;;;;;15.78;100.00;100925.97;4984324;28;20050;-69
2023/07/31 01:27:14;;;;;;;;;;;;;;;15.80;100.00;100923.06;4987497;28;20026;-70
2023/07/31 01:30:18;;;;;;;17.00;4.90;;;;;;;15.78;100.00;100936.94;4989191;28;20005;-70
2023/07/31 01:32:48;;;;;;;14.13;4.30;;;;;;;15.75;100.00;100922.66;4990145;28;20030;-70
2023/07/31 01:35:13;;;;;;;13.15;4.60;;;;;;;15.74;100.00;100920.91;4988104;28;20076;-70
2023/07/31 01:37:38;;;;;;;19.83;4.30;;;;;;;15.73;100.00;100931.03;4988644;28;20034;-70
2023/07/31 01:40:06;;;;;;;18.33;5.20;;;;;;;15.72;100.00;100923.81;4987936;28;20394;-70
2023/07/31 01:42:32;;;;;;;19.88;4.40;;;;;;;15.73;100.00;100928.28;4986462;28;20411;-69
2023/07/31 01:44:57;;;;;;;16.58;5.07;;;;;;;15.71;100.00;100915.69;4988895;28;20110;-69
2023/07/31 01:47:23;;;;;;;14.70;5.10;;;;;;;15.70;100.00;100917.59;4988731;28;20042;-69
2023/07/31 01:49:49;;;;;;;17.45;4.90;;;;;;;15.69;100.00;100910.38;4988852;28;20157;-70
2023/07/31 01:52:14;;;;;;;19.60;4.85;;;;;;;15.68;100.00;100916.88;4987636;28;20457;-70
2023/07/31 01:54:39;;;;;;;18.10;4.63;;;;;;;15.65;100.00;100910.81;4988152;28;20042;-70
2023/07/31 01:57:05;;;;;;;15.23;4.72;;;;;;;15.62;100.00;100906.44;4986875;28;20469;-70
2023/07/31 01:59:30;;;;;;;17.83;5.53;;;;;;;15.60;100.00;100907.59;4987992;28;20355;-70
2023/07/31 02:01:56;;;;;;;18.00;5.45;;;;;;;15.59;100.00;100894.88;4989851;28;20038;-70
2023/07/31 02:04:21;;;;;;;18.23;5.00;;;;;;;15.56;100.00;100894.16;5007395;28;20105;-70
2023/07/31 02:06:46;;;;;;;18.60;5.47;;;;;;;15.54;100.00;100889.84;5006119;28;20042;-70
2023/07/31 02:09:12;;;;;;;17.85;6.00;;;;;;;15.53;100.00;100888.09;4998392;28;20034;-70
2023/07/31 02:11:37;;;;;;;15.85;4.85;;;;;;;15.53;100.00;100888.97;4986836;28;20092;-70
2023/07/31 02:14:03;;;;;;;13.65;4.30;;;;;;;15.53;100.00;100886.22;4988150;28;20125;-70
2023/07/31 02:16:28;;;;;;;15.80;4.90;;;;;;;15.51;100.00;100873.66;5004949;28;20042;-69
2023/07/31 02:18:53;;;;;;;18.33;5.50;;;;;;;15.49;100.00;100882.03;5006420;28;20048;-69
2023/07/31 02:21:19;;;;;;;18.42;5.10;;;;;;;15.49;100.00;100878.44;4996456;28;20038;-69
2023/07/31 02:23:44;;;;;;;14.80;5.53;;;;;;;15.48;100.00;100883.03;4987723;28;20038;-69
2023/07/31 02:26:10;;;;;;;16.33;5.53;;;;;;;15.47;100.00;100880.44;4986217;28;20026;-69
2023/07/31 02:28:36;;;;;;;22.00;5.18;;;;;;;15.46;100.00;100871.34;4987816;28;20626;-69
2023/07/31 02:31:01;;;;;;;18.55;6.10;;;;;;;15.46;100.00;100882.31;4994908;28;20038;-69
2023/07/31 02:33:26;;;;;;;21.92;6.07;;;;;;;15.46;100.00;100873.22;5002969;28;20038;-70
2023/07/31 02:35:52;;;;;;;13.75;5.55;;;;;;;15.44;100.00;100867.88;4987954;28;20034;-70
2023/07/31 02:38:17;;;;;;;16.85;5.60;;;;;;;15.43;100.00;100866.13;5001381;28;20049;-70
2023/07/31 02:40:42;;;;;;;19.70;4.97;;;;;;;15.42;100.00;100867.16;4988603;28;20463;-69
2023/07/31 02:43:08;;;;;;;18.15;5.03;;;;;;;15.41;100.00;100865.41;4994384;28;20562;-70
2023/07/31 02:45:34;;;;;;;18.52;5.50;;;;;;;15.40;100.00;100862.81;5007589;28;20565;-70
2023/07/31 02:47:59;;;;;;;16.50;5.55;;;;;;;15.38;100.00;100854.72;5005385;28;20481;-70
2023/07/31 02:50:25;;;;;;;16.85;5.35;;;;;;;15.38;100.00;100865.69;4995386;28;20482;-70
2023/07/31 02:52:51;;;;;;;14.65;4.97;;;;;;;15.39;100.00;100858.31;4985824;28;20133;-70
2023/07/31 02:55:16;;;;;;;18.20;5.75;;;;;;;15.36;100.00;100853.16;4988260;28;20037;-69
2023/07/31 02:57:41;;;;;;;14.88;5.43;;;;;;;15.35;100.00;100860.50;4986548;28;20117;-69
2023/07/31 03:00:07;;;;;;;18.73;5.63;;;;;;;15.34;100.00;100856.03;4987494;28;20431;-69
2023/07/31 03:02:33;;;;;;;14.55;5.38;;;;;;;15.35;100.00;100857.78;4987941;28;20132;-70
2023/07/31 03:04:58;;;;;;;17.98;5.53;;;;;;;15.35;100.00;100851.44;4986047;28;20042;-70
2023/07/31 03:07:23;;;;;;;15.52;5.85;;;;;;;15.32;100.00;100844.34;4994945;28;20582;-70
2023/07/31 03:09:49;;;;;;;15.02;5.53;;;;;;;15.34;100.00;100852.41;4987028;28;20124;-69
2023/07/31 03:12:14;;;;;;;16.85;4.78;;;;;;;15.32;100.00;100850.69;4986018;28;20038;-70
2023/07/31 03:14:40;;;;;;;14.55;5.90;;;;;;;15.35;100.00;100851.44;5004882;28;20621;-69
2023/07/31 03:17:06;;;;;;;19.80;5.47;;;;;;;15.33;100.00;100851.53;4991700;28;20034;-70
2023/07/31 03:19:32;;;;;;;18.73;5.22;;;;;;;15.34;100.00;100852.41;4991801;28;20034;-70
2023/07/31 03:21:58;;;;;;;15.75;4.97;;;;;;;15.34;100.00;100850.56;4997121;28;20030;-70
2023/07/31 03:24:23;;;;;;;17.67;5.28;;;;;;;15.32;100.00;100853.41;4993737;28;20481;-70
2023/07/31 03:26:48;;;;;;;17.30;5.32;;;;;;;15.32;100.00;100847.94;5006084;28;20045;-70
2023/07/31 03:29:14;;;;;;;15.93;5.70;;;;;;;15.33;100.00;100848.81;5005093;28;20710;-69
2023/07/31 03:31:39;;;;;;;15.70;5.82;;;;;;;15.32;100.00;100845.19;5005249;28;20402;-69
2023/07/31 03:34:04;;;;;;;16.63;5.25;;;;;;;15.32;100.00;100844.34;4991571;28;20026;-69
2023/07/31 03:36:30;;;;;;;17.88;5.85;;;;;;;15.29;100.00;100834.53;4991122;28;20073;-70
2023/07/31 03:38:55;;;;;;;14.43;5.45;;;;;;;15.31;100.00;100835.25;4994126;28;20397;-69
2023/07/31 03:41:21;;;;;;;17.05;5.13;;;;;;;15.32;100.00;100833.38;5009378;28;20049;-69
2023/07/31 03:43:51;;;;;;;19.45;5.63;;;;;;;15.31;100.00;100829.75;4997829;28;20100;-70
2023/07/31 03:46:17;;;;;;;18.17;4.93;;;;;;;15.32;100.00;100822.41;4991188;28;20470;-69
2023/07/31 03:48:42;;;;;;;20.23;5.88;;;;;;;15.32;100.00;100823.28;4994724;28;20068;-70
2023/07/31 03:51:08;;;;;;;19.85;5.35;;;;;;;15.32;100.00;100819.66;4990828;28;20423;-70
2023/07/31 03:53:33;;;;;;;17.65;5.22;;;;;;;15.34;100.00;100811.28;4990632;28;20038;-69
2023/07/31 03:55:58;;;;;;;13.02;4.65;;;;;;;15.34;100.00;100817.66;4988801;28;20466;-70
2023/07/31 03:58:24;;;;;;;19.27;5.38;;;;;;;15.37;100.00;100805.53;4990487;28;20506;-69
2023/07/31 04:00:49;;;;;;;13.65;4.88;;;;;;;15.37;100.00;100806.38;4989527;28;20092;-70
2023/07/31 04:03:14;;;;;;;17.35;5.35;;;;;;;15.40;100.00;100799.78;4990131;28;20046;-69
2023/07/31 04:05:40;;;;;;;20.88;4.80;;;;;;;15.40;100.00;100797.91;4989607;28;20041;-71
2023/07/31 04:08:05;;;;;;;14.25;5.15;;;;;;;15.38;100.00;100788.94;4990188;28;20425;-69
2023/07/31 04:10:33;;;;;;;16.40;5.03;;;;;;;15.42;100.00;100795.00;4990986;28;20053;-71
2023/07/31 04:12:59;;;;;;;20.92;5.82;;;;;;;15.43;100.00;100793.97;4990803;28;20053;-69
2023/07/31 04:15:24;;;;;;;16.70;5.95;;;;;;;15.45;100.00;100789.25;4990786;28;20089;-68
2023/07/31 04:17:50;;;;;;;18.08;5.03;;;;;;;15.46;100.00;100794.56;5003899;28;20031;-69
2023/07/31 04:20:15;;;;;;;13.30;5.00;;;;;;;15.48;100.00;100789.81;4991378;28;20505;-69
2023/07/31 04:22:40;;;;;;;16.90;4.88;;;;;;;15.49;100.00;100777.84;4989305;28;20401;-70
2023/07/31 04:25:06;;;;;;;16.70;5.35;;;;;;;15.52;100.00;100783.00;4989658;28;20086;-69
2023/07/31 04:27:31;;;;;;;13.68;5.43;;;;;;;15.55;100.00;100782.72;4988893;28;20136;-69
2023/07/31 04:29:57;;;;;;;21.20;5.57;;;;;;;15.57;100.00;100785.31;4990237;28;20042;-70
2023/07/31 04:32:22;;;;;;;16.80;4.90;;;;;;;15.59;100.00;100776.97;4990766;28;20113;-69
2023/07/31 04:34:47;;;;;;;19.70;5.03;;;;;;;15.60;100.00;100789.66;4990214;28;20041;-70
2023/07/31 04:37:13;;;;;;;19.05;5.45;;;;;;;15.62;100.00;100785.78;4990402;28;20045;-69
2023/07/31 04:39:39;;;;;;;15.30;4.70;;;;;;;15.63;100.00;100771.03;4989548;28;20042;-69
2023/07/31 04:42:05;;;;;;;18.48;4.90;;;;;;;15.67;100.00;100777.16;4988657;28;20042;-69
2023/07/31 04:44:30;;;;;;;16.17;5.47;;;;;;;15.68;100.00;100773.38;5002034;28;20037;-69
2023/07/31 04:46:55;;;;;;;20.25;5.32;;;;;;;15.69;100.00;100773.22;4990268;28;20096;-69
2023/07/31 04:49:21;;;;;;;18.73;5.53;;;;;;;15.68;100.00;100765.16;4988125;28;20057;-69
2023/07/31 04:51:47;;;;;;;14.32;4.88;;;;;;;15.71;100.00;100762.09;4989944;28;20045;-70
2023/07/31 04:54:14;;;;;;;25.13;5.60;;;;;;;15.74;100.00;100756.34;4989987;28;20038;-69
2023/07/31 04:56:40;;;;;;;11.65;4.70;;;;;;;15.74;100.00;100759.06;4989540;28;20030;-69
2023/07/31 04:59:06;;;;;;;16.55;4.90;;;;;;;15.78;100.00;100758.63;4989188;28;20483;-69
2023/07/31 05:01:31;;;;;;;13.70;5.20;;;;;;;15.80;100.00;100758.47;4988821;28;20046;-69
2023/07/31 05:03:57;;;;;;;19.27;5.40;;;;;;;15.82;100.00;100745.50;4989678;28;20038;-69
2023/07/31 05:06:22;;;;;;;15.95;5.72;;;;;;;15.84;100.00;100748.94;4990152;28;20451;-69
2023/07/31 05:08:47;;;;;;;15.77;5.50;;;;;;;15.86;100.00;100744.19;4989149;28;20021;-69
2023/07/31 05:11:13;;;;;;;15.05;5.07;;;;;;;15.84;100.00;100732.47;4990018;28;20096;-70
2023/07/31 05:13:38;;;;;;;15.70;5.57;;;;;;;15.87;100.00;100742.31;4996690;28;20145;-71
2023/07/31 05:16:04;;;;;;;14.45;5.47;;;;;;;15.88;100.00;100741.28;5007312;28;20034;-71
2023/07/31 05:18:29;;;;;;;16.83;5.95;;;;;;;15.87;100.00;100739.56;5007642;28;20041;-71
2023/07/31 05:20:54;;;;;;;15.20;4.82;;;;;;;15.87;100.00;100739.56;5000712;28;20036;-70
2023/07/31 05:23:20;;;;;;;19.40;6.00;;;;;;;15.86;100.00;100733.22;5005103;28;20121;-71
2023/07/31 05:25:45;;;;;;;14.63;5.18;;;;;;;15.86;100.00;100737.84;4994155;28;20407;-70
2023/07/31 05:28:12;;;;;;;18.73;6.13;;;;;;;15.85;100.00;100738.84;5000869;28;20046;-70
2023/07/31 05:30:37;;;;;;;18.02;5.22;;;;;;;15.83;100.00;100730.75;5004763;28;20173;-70
2023/07/31 05:33:03;;;;;;;16.58;5.78;;;;;;;15.85;100.00;100731.47;5001000;28;20124;-70
2023/07/31 05:35:28;;;;;;;10.60;4.60;;;;;;;15.85;100.00;100730.59;5005628;28;20042;-70
2023/07/31 05:37:53;;;;;;;11.52;5.55;;;;;;;15.86;100.00;100735.97;5005614;28;20049;-71
2023/07/31 05:40:19;;;;;;;10.20;5.20;;;;;;;15.83;100.00;100736.25;5005424;28;20120;-70
2023/07/31 05:42:44;;;;;;;10.88;5.18;;;;;;;15.79;100.00;100727.44;5005434;28;20033;-70
2023/07/31 05:45:10;;;;;;;9.00;4.88;;;;;;;15.82;100.00;100729.91;5002820;28;20044;-70
2023/07/31 05:47:35;;;;;;;12.10;5.35;;;;;;;15.83;100.00;100728.03;5006831;28;20401;-71
2023/07/31 05:50:01;;;;;;;9.15;4.85;;;;;;;15.82;100.00;100718.06;5003292;28;76964;-71
2023/07/31 05:52:26;;;;;;;11.20;5.07;;;;;;;15.81;100.00;100721.84;5022605;28;20413;-71
2023/07/31 05:54:51;;;;;;;9.07;4.35;;;;;;;15.79;100.00;100716.47;5019829;28;20412;-71
2023/07/31 05:57:17;;;;;;;10.57;4.97;;;;;;;15.78;100.00;100713.88;5026421;28;20053;-70
2023/07/31 05:59:42;;;;;;;13.32;4.78;;;;;;;15.76;100.00;100711.31;5025975;28;20056;-70
2023/07/31 06:02:08;;;;;;;8.98;4.35;;;;;;;15.76;100.00;100714.03;5027397;28;20380;-70
2023/07/31 06:04:33;;;;;;;6.28;3.95;;;;;;;15.75;100.00;100711.44;5027277;28;20093;-71
2023/07/31 06:07:00;;;;;;;10.25;3.17;;;;;;;15.76;100.00;100714.03;5027459;28;20369;-70
2023/07/31 06:09:25;;;;;;;8.43;3.50;;;;;;;15.78;100.00;100711.16;5007360;28;20132;-71
2023/07/31 06:11:51;;;;;;;6.18;3.28;;;;;;;15.79;100.00;100710.97;5025609;28;20116;-71
2023/07/31 06:14:16;;;;;;;10.75;3.50;;;;;;;15.81;100.00;100711.72;5022236;28;20734;-70
2023/07/31 06:16:42;;;;;;;6.63;3.30;;;;;;;15.82;100.00;100701.59;5021758;28;20387;-71
2023/07/31 06:19:07;;;;;;;4.47;2.75;;;;;;;15.82;100.00;100705.22;5006968;28;20038;-71
2023/07/31 06:21:33;;;;;;;7.22;2.80;;;;;;;15.82;100.00;100691.50;5007925;28;20161;-70
2023/07/31 06:23:58;;;;;;;8.40;3.20;;;;;;;15.80;100.00;100690.75;5018125;28;20471;-70
2023/07/31 06:26:24;;;;;;;6.80;3.00;;;;;;;15.84;100.00;100695.97;5013336;28;20037;-70
2023/07/31 06:28:50;;;;;;;5.28;3.35;;;;;;;15.87;100.00;100702.03;5017710;28;20097;-70
2023/07/31 06:31:15;;;;;;;9.02;3.38;;;;;;;15.89;100.00;100696.38;5027962;28;20033;-70
2023/07/31 06:33:40;;;;;;;8.13;3.70;;;;;;;15.90;100.00;100690.75;5013874;28;20413;-70
2023/07/31 06:36:06;;;;;;;6.50;3.47;;;;;;;15.91;100.00;100686.13;5020029;28;20703;-70
2023/07/31 06:38:31;;;;;;;10.30;3.83;;;;;;;15.93;100.00;100689.56;5024727;28;20038;-71
2023/07/31 06:40:57;;;;;;;7.90;3.88;;;;;;;15.97;100.00;100685.53;5010316;28;20041;-70
2023/07/31 06:43:22;;;;;;;4.95;3.20;;;;;;;16.01;100.00;100684.22;5007318;28;20046;-70
2023/07/31 06:45:51;;;;;;;8.30;4.18;;;;;;;16.03;100.00;100682.16;5008054;28;20050;-70
2023/07/31 06:48:16;;;;;;;6.65;3.55;;;;;;;16.06;100.00;100676.38;5008202;28;20037;-70
2023/07/31 06:50:42;;;;;;;8.68;3.58;;;;;;;16.06;100.00;100680.00;4994664;28;20037;-70
2023/07/31 06:53:07;;;;;;;6.20;3.90;;;;;;;16.06;100.00;100673.66;5042174;28;20045;-70
2023/07/31 06:55:33;;;;;;;6.03;4.13;;;;;;;16.05;100.00;100671.94;5024773;28;20067;-70
2023/07/31 06:57:58;;;;;;;6.28;3.95;;;;;;;16.07;100.00;100664.41;5019821;28;20050;-71
2023/07/31 07:00:24;;;;;;;5.40;3.85;;;;;;;16.11;100.00;100664.97;5013571;28;20059;-71
2023/07/31 07:02:50;;;;;;;4.47;3.13;;;;;;;16.13;100.00;100672.00;5026116;28;20034;-70
2023/07/31 07:05:17;;;;;;;7.22;3.55;;;;;;;16.15;100.00;100671.88;5019041;28;20033;-70
2023/07/31 07:07:43;;;;;;;5.90;3.78;;;;;;;16.21;100.00;100668.53;5034686;28;20041;-70
2023/07/31 07:10:09;;;;;;;7.13;3.83;;;;;;;16.25;100.00;100661.72;5016731;28;20512;-71
2023/07/31 07:12:35;;;;;;;4.90;3.45;;;;;;;16.28;100.00;100667.78;5025137;28;20045;-70
2023/07/31 07:15:01;;;;;;;5.07;3.53;;;;;;;16.32;100.00;100663.72;5017334;28;20116;-70
2023/07/31 07:17:28;;;;;;;6.35;3.40;;;;;;;16.35;100.00;100664.41;5026158;28;20033;-70
2023/07/31 07:19:55;;;;;;;6.45;3.35;;;;;;;16.36;100.00;100649.66;5024300;28;20120;-70
2023/07/31 07:22:20;;;;;;;6.82;3.65;;;;;;;16.37;100.00;100654.13;5011970;28;20030;-70
2023/07/31 07:24:45;;;;;;;6.45;3.28;;;;;;;16.39;100.00;100649.34;5008957;28;20037;-71
2023/07/31 07:27:10;;;;;;;5.07;3.58;;;;;;;16.38;100.00;100648.50;5008876;28;20103;-69
2023/07/31 07:29:38;;;;;;;5.82;3.28;;;;;;;16.37;100.00;100652.25;5013250;28;20117;-70
2023/07/31 07:32:04;;;;;;;3.78;2.80;;;;;;;16.39;100.00;100650.22;5008027;28;20381;-70
2023/07/31 07:34:29;;;;;;;7.00;3.53;;;;;;;16.44;100.00;100658.00;5021332;28;20140;-70
2023/07/31 07:36:54;;;;;;;7.15;4.15;;;;;;;16.44;100.00;100649.75;5007359;28;20492;-70
2023/07/31 07:39:20;;;;;;;7.45;4.13;;;;;;;16.43;100.00;100661.75;5014017;28;20065;-70
2023/07/31 07:41:46;;;;;;;7.25;4.47;;;;;;;16.44;100.00;100644.25;5027551;28;20120;-70
2023/07/31 07:44:12;;;;;;;6.53;4.65;;;;;;;16.42;100.00;100649.91;5021042;28;20037;-70
2023/07/31 07:46:37;;;;;;;6.32;4.47;;;;;;;16.40;100.00;100651.06;5011744;28;20033;-70
2023/07/31 07:49:02;;;;;;;9.23;5.40;;;;;;;16.37;100.00;100640.38;5011892;28;20041;-70
2023/07/31 07:51:30;;;;;;;9.25;4.80;;;;;;;16.41;100.00;100650.91;5014166;28;20128;-70
2023/07/31 07:53:55;;;;;;;10.32;5.20;;;;;;;16.46;100.00;100639.47;5007600;28;20050;-70
2023/07/31 07:56:21;;;;;;;6.47;4.65;;;;;;;16.54;100.00;100647.81;5007097;28;20033;-70
2023/07/31 07:58:49;;;;;;;10.30;4.75;;;;;;;16.55;100.00;100655.91;5010478;28;20052;-70
2023/07/31 08:01:15;;;;;;;8.05;4.55;;;;;;;16.55;100.00;100628.44;5025912;28;20047;-70
2023/07/31 08:03:40;;;;;;;8.75;5.10;;;;;;;16.52;100.00;100644.38;5013067;28;20116;-70
2023/07/31 08:06:05;;;;;;;9.77;5.40;;;;;;;16.51;100.00;100643.50;5030318;28;20057;-70
2023/07/31 08:08:31;;;;;;;7.38;4.75;;;;;;;16.51;100.00;100648.13;5029282;28;20029;-70
2023/07/31 08:10:56;;;;;;;7.57;5.18;;;;;;;16.52;100.00;100644.38;5027887;28;20459;-70
2023/07/31 08:13:21;;;;;;;11.88;5.50;;;;;;;16.54;100.00;100637.69;5028941;28;20037;-70
2023/07/31 08:15:47;;;;;;;12.80;4.95;;;;;;;16.57;100.00;100631.88;5029892;28;20034;-70
2023/07/31 08:18:12;;;;;;;9.20;4.80;;;;;;;16.61;100.00;100632.44;5029461;28;20136;-70
2023/07/31 08:20:37;;;;;;;9.55;4.63;;;;;;;16.63;100.00;100643.28;5027977;28;20133;-70
2023/07/31 08:23:03;;;;;;;11.02;5.05;;;;;;;16.63;100.00;100633.16;5029484;28;20504;-69
2023/07/31 08:25:29;;;;;;;8.07;5.07;;;;;;;16.60;100.00;100630.72;5013411;28;20046;-69
2023/07/31 08:27:55;;;;;;;8.80;4.97;;;;;;;16.55;100.00;100638.53;5011292;28;20491;-70
2023/07/31 08:30:21;;;;;;;9.25;4.85;;;;;;;16.55;100.00;100635.78;5016552;28;20565;-70
2023/07/31 08:32:46;;;;;;;9.65;4.97;;;;;;;16.58;100.00;100638.25;5034022;28;20036;-70
2023/07/31 08:35:12;;;;;;;7.32;4.63;;;;;;;16.59;100.00;100632.59;5020087;28;20480;-70
2023/07/31 08:37:38;;;;;;;8.15;4.80;;;;;;;16.64;100.00;100647.75;5017933;28;20531;-70
2023/07/31 08:40:04;;;;;;;11.32;4.70;;;;;;;16.65;100.00;100633.88;5024135;28;20087;-70
2023/07/31 08:42:29;;;;;;;12.55;5.80;;;;;;;16.66;100.00;100637.47;5017836;28;20494;-70
2023/07/31 08:44:56;;;;;;;7.03;4.47;;;;;;;16.64;100.00;100640.34;5011993;28;20034;-71
2023/07/31 08:47:22;;;;;;;9.23;5.43;;;;;;;16.65;100.00;100642.13;5014641;28;20113;-70
2023/07/31 08:49:48;;;;;;;8.93;5.07;;;;;;;16.64;100.00;100637.59;5011363;28;20389;-70
2023/07/31 08:52:13;;;;;;;8.05;5.03;;;;;;;16.64;100.00;100639.50;5009112;28;20045;-70
2023/07/31 08:54:39;;;;;;;9.10;5.60;;;;;;;16.65;100.00;100633.88;5017334;28;20034;-70
2023/07/31 08:57:06;;;;;;;8.13;5.20;;;;;;;16.64;100.00;100628.50;5029258;28;20053;-70
2023/07/31 08:59:35;;;;;;;8.32;5.60;;;;;;;16.63;100.00;100641.38;5027615;28;20048;-70
2023/07/31 09:02:07;;;;;;;12.07;5.57;;;;;;;16.61;100.00;100629.69;5029454;28;20488;-70
2023/07/31 09:04:33;;;;;;;8.85;5.78;;;;;;;16.65;100.00;100630.25;5028903;28;20037;-70
2023/07/31 09:07:04;;;;;;;9.88;5.45;;;;;;;16.66;100.00;100635.59;5010601;28;20513;-70
2023/07/31 09:09:31;;;;;;;12.50;6.40;;;;;;;16.69;100.00;100627.00;5019179;28;20381;-70
2023/07/31 09:11:57;;;;;;;9.00;5.60;;;;;;;16.74;100.00;100632.06;5028803;28;20018;-70
2023/07/31 09:14:25;;;;;;;13.63;5.88;;;;;;;16.75;100.00;100629.19;5024802;28;20476;-70
2023/07/31 09:16:59;;;;;;;9.63;5.90;;;;;;;16.75;100.00;100622.84;5029523;28;20615;-70
2023/07/31 09:19:29;;;;;;;7.90;5.63;;;;;;;16.75;100.00;100620.09;5020924;28;20033;-70
2023/07/31 09:21:55;;;;;;;11.15;5.82;;;;;;;16.76;100.00;100624.56;5029430;28;20164;-71
2023/07/31 09:24:31;;;;;;;9.80;5.38;;;;;;;16.82;100.00;100622.03;5020572;28;20204;-70
2023/07/31 09:26:58;;;;;;;10.55;5.63;;;;;;;16.88;100.00;100625.16;5009039;28;20540;-70
2023/07/31 09:29:24;;;;;;;15.50;5.88;;;;;;;16.92;100.00;100623.84;5012209;28;20017;-71
2023/07/31 09:31:50;;;;;;;11.52;5.95;;;;;;;16.94;100.00;100610.81;5020488;28;20044;-71
2023/07/31 09:34:16;;;;;;;13.27;5.78;;;;;;;17.01;100.00;100622.91;5029158;28;20025;-71
2023/07/31 09:36:44;;;;;;;7.22;5.25;;;;;;;17.04;100.00;100619.84;4998235;28;20124;-71
2023/07/31 09:39:11;;;;;;;11.55;6.15;;;;;;;17.08;100.00;100615.75;5019149;28;20160;-70
2023/07/31 09:41:38;;;;;;;12.23;6.00;;;;;;;17.12;100.00;100613.56;5026628;28;20045;-70
2023/07/31 09:44:04;;;;;;;11.02;5.70;;;;;;;17.17;100.00;100612.06;5023307;28;20034;-70
2023/07/31 09:46:30;;;;;;;11.68;5.85;;;;;;;17.23;100.00;100607.78;5016592;28;20025;-70
2023/07/31 09:49:13;;;;;;;13.30;5.97;;;;;;;17.29;100.00;100609.88;5018058;28;20037;-70
2023/07/31 09:51:41;;;;;;;11.25;5.88;;;;;;;17.36;100.00;100613.75;5017530;28;20087;-71
2023/07/31 09:54:15;;;;;;;11.35;5.20;;;;;;;17.42;100.00;100603.97;5020963;28;20589;-70
2023/07/31 09:56:45;;;;;;;9.43;5.15;;;;;;;17.48;100.00;100608.81;5025707;28;20060;-70
2023/07/31 09:59:13;;;;;;;8.35;4.82;;;;;;;17.59;100.00;100605.81;5016188;28;20049;-70
2023/07/31 10:01:40;;;;;;;13.07;5.55;;;;;;;17.62;100.00;100605.47;5022871;28;20125;-70
2023/07/31 10:04:08;;;;;;;10.07;5.47;;;;;;;17.68;100.00;100601.22;5016324;28;20100;-70
2023/07/31 10:06:35;;;;;;;10.05;5.10;;;;;;;17.65;100.00;100601.53;5018451;28;20105;-70
2023/07/31 10:09:03;;;;;;;7.30;4.93;;;;;;;17.61;100.00;100592.75;5016315;28;20145;-70
2023/07/31 10:11:30;;;;;;;9.35;5.13;;;;;;;17.60;100.00;100596.53;5012742;28;20034;-70
2023/07/31 10:13:56;;;;;;;8.60;5.13;;;;;;;17.78;100.00;100588.25;5021780;28;20053;-70
2023/07/31 10:16:22;;;;;;;7.65;5.00;;;;;;;18.08;100.00;100584.06;5025392;28;20033;-70
2023/07/31 10:18:49;;;;;;;8.77;4.78;;;;;;;18.29;100.00;100583.63;5013524;28;20397;-71
2023/07/31 10:21:15;;;;;;;6.63;4.60;;;;;;;18.38;100.00;100579.88;5009044;28;20048;-71
2023/07/31 10:23:42;;;;;;;7.78;3.75;;;;;;;18.46;100.00;100590.88;5016313;28;20583;-71
2023/07/31 10:26:08;;;;;;;9.98;4.10;;;;;;;18.45;100.00;100589.16;5014891;28;20048;-71
2023/07/31 10:28:34;;;;;;;9.52;4.00;;;;;;;18.44;100.00;100592.97;5013948;28;20021;-71
2023/07/31 10:31:02;;;;;;;14.32;4.10;;;;;;;18.50;100.00;100586.75;5013423;28;20108;-70
2023/07/31 10:33:29;;;;;;;9.55;4.70;;;;;;;18.64;100.00;100600.91;5021664;28;20041;-71
2023/07/31 10:36:12;;;;;;;7.47;4.28;;;;;;;18.70;100.00;100589.25;5024407;28;20573;-70
2023/07/31 10:38:38;;;;;;;7.28;3.97;;;;;;;18.77;100.00;100593.06;5005657;28;20092;-70
2023/07/31 10:41:10;;;;;;;7.97;3.80;;;;;;;18.86;100.00;100600.28;5018188;28;20111;-71
2023/07/31 10:43:38;;;;;;;7.85;3.85;;;;;;;18.84;100.00;100597.72;5011129;28;20461;-71
2023/07/31 10:46:09;;;;;;;8.13;3.50;;;;;;;18.90;100.00;100598.06;5021757;28;20541;-71
2023/07/31 10:48:36;;;;;;;5.50;3.00;;;;;;;18.87;99.71;100593.75;5007361;28;20462;-71
2023/07/31 10:51:07;;;;;;;7.07;3.88;;;;;;;18.83;100.00;100589.59;5008237;28;20152;-71
2023/07/31 10:53:32;;;;;;;6.68;3.78;;;;;;;18.74;99.59;100602.50;5017261;28;20045;-70
2023/07/31 10:55:59;;;;;;;6.63;3.80;;;;;;;18.68;100.00;100599.56;5006448;28;20561;-71
2023/07/31 10:58:25;;;;;;;8.13;3.47;;;;;;;18.58;98.86;100592.31;5015170;28;20132;-71
2023/07/31 11:00:56;;;;;;;7.07;3.67;;;;;;;18.53;100.00;100583.69;5027596;28;20120;-72
2023/07/31 11:03:26;;;;;;;8.35;4.13;;;;;;;18.51;100.00;100588.50;5013892;28;20484;-71
2023/07/31 11:05:53;;;;;;;7.40;3.65;;;;;;;18.50;100.00;100591.41;5006138;28;20045;-71
2023/07/31 11:08:27;;;;;;;8.23;3.88;;;;;;;18.47;100.00;100584.38;5007754;28;20038;-71